Terminal Aerodrome Forecast
Issued by NWS El Paso, TX

Home | Current Version | Previous Version | Text Only | Print | Product List | Glossary On
Versions: 1 2 3 4 5 6 7 8 9 10 11 12
814
FTUS44 KEPZ 271138
TAFELP
TAF
KELP 271138Z 2712/2812 05005KT P6SM VCSH FEW020 BKN050
     FM271400 06006KT P6SM FEW020 SCT050 BKN120
     FM272200 09007KT P6SM VCTS SCT090CB BKN150
     FM280600 08007KT P6SM BKN120=

USA.gov is the U.S. government's official web portal to all federal, state and local government web resources and services.